createdAt,value
2022-11-19T00:00:10.165Z,92.20
2022-11-19T00:02:36.846Z,92.10
2022-11-19T00:05:03.612Z,92.10
2022-11-19T00:07:30.376Z,92.00
2022-11-19T00:09:57.361Z,92.00
2022-11-19T00:12:42.651Z,91.90
2022-11-19T00:15:09.447Z,92.40
2022-11-19T00:17:36.125Z,92.10
2022-11-19T00:20:02.872Z,91.90
2022-11-19T00:22:29.504Z,92.00
2022-11-19T00:24:56.397Z,91.90
2022-11-19T00:27:23.102Z,92.00
2022-11-19T00:29:49.819Z,92.00
2022-11-19T00:32:16.439Z,92.00
2022-11-19T00:34:43.181Z,92.00
2022-11-19T00:37:09.914Z,92.00
2022-11-19T00:39:36.655Z,92.00
2022-11-19T00:42:03.532Z,92.00
2022-11-19T00:44:35.586Z,91.90
2022-11-19T00:47:04.141Z,92.00
2022-11-19T00:49:30.779Z,92.10
2022-11-19T00:51:57.905Z,92.20
2022-11-19T00:54:24.622Z,92.30
2022-11-19T00:56:51.370Z,92.30
2022-11-19T00:59:18.318Z,92.20
2022-11-19T01:01:45.260Z,92.10
2022-11-19T01:04:12.120Z,92.10
2022-11-19T01:06:38.896Z,92.20
2022-11-19T01:09:09.311Z,92.20
2022-11-19T01:11:37.245Z,92.20
2022-11-19T01:14:04.566Z,92.20
2022-11-19T01:16:33.614Z,92.00
2022-11-19T01:19:00.986Z,92.00
2022-11-19T01:21:29.155Z,91.80
2022-11-19T01:23:56.414Z,91.80
2022-11-19T01:26:23.291Z,91.90
2022-11-19T01:28:50.521Z,91.90
2022-11-19T01:31:18.710Z,91.90
2022-11-19T01:33:45.682Z,91.90
2022-11-19T01:36:22.585Z,91.90
2022-11-19T01:38:50.996Z,92.00
2022-11-19T01:41:19.054Z,92.10
2022-11-19T01:43:47.106Z,92.10
2022-11-19T01:46:15.402Z,92.10
2022-11-19T01:48:49.282Z,92.10
2022-11-19T01:51:26.771Z,92.10
2022-11-19T01:53:57.187Z,92.00
2022-11-19T01:56:24.597Z,91.90
2022-11-19T01:58:54.839Z,91.90
2022-11-19T02:01:22.090Z,91.90
2022-11-19T02:03:49.233Z,91.80
2022-11-19T02:06:16.146Z,91.70
2022-11-19T02:08:44.017Z,91.80
2022-11-19T02:11:16.776Z,91.90
2022-11-19T02:14:02.354Z,91.80
2022-11-19T02:16:37.788Z,91.90
2022-11-19T02:19:15.099Z,91.90
2022-11-19T02:22:05.804Z,91.80
2022-11-19T02:24:41.144Z,91.80
2022-11-19T02:27:29.225Z,91.70
2022-11-19T02:30:02.920Z,91.70
2022-11-19T02:32:40.487Z,91.70
2022-11-19T02:35:25.875Z,91.70
2022-11-19T02:38:01.067Z,91.70
2022-11-19T02:40:36.965Z,91.60
2022-11-19T02:43:03.771Z,91.70
2022-11-19T02:45:34.558Z,91.60
2022-11-19T02:48:05.649Z,91.60
2022-11-19T02:50:36.112Z,91.60
2022-11-19T02:53:03.907Z,91.50
2022-11-19T02:55:30.621Z,91.50
2022-11-19T02:58:03.659Z,91.50
2022-11-19T03:00:54.220Z,91.60
2022-11-19T03:03:40.673Z,91.60
2022-11-19T03:06:11.610Z,91.70
2022-11-19T03:08:38.731Z,91.70
2022-11-19T03:11:05.356Z,91.80
2022-11-19T03:13:59.989Z,91.80
2022-11-19T03:16:44.096Z,91.70
2022-11-19T03:19:20.524Z,91.70
2022-11-19T03:21:51.519Z,91.60
2022-11-19T03:24:25.621Z,91.60
2022-11-19T03:26:56.066Z,91.50
2022-11-19T03:29:25.159Z,91.60
2022-11-19T03:31:53.667Z,91.50
2022-11-19T03:34:21.971Z,91.50
2022-11-19T03:36:50.850Z,91.60
2022-11-19T03:39:18.813Z,91.60
2022-11-19T03:41:47.545Z,91.50
2022-11-19T03:44:24.247Z,91.50
2022-11-19T03:46:53.070Z,91.50
2022-11-19T03:49:22.236Z,91.60
2022-11-19T03:52:10.397Z,91.60
2022-11-19T03:54:38.113Z,91.60
2022-11-19T03:57:06.409Z,91.70
2022-11-19T03:59:33.164Z,91.60
2022-11-19T04:02:01.970Z,91.60
2022-11-19T04:04:38.132Z,91.60
2022-11-19T04:07:10.781Z,91.60
2022-11-19T04:09:38.534Z,91.50
2022-11-19T04:12:05.896Z,91.50
2022-11-19T04:14:33.045Z,91.50
2022-11-19T04:16:59.753Z,91.50
2022-11-19T04:19:26.542Z,91.50
2022-11-19T04:21:53.265Z,91.50
2022-11-19T04:24:20.064Z,91.40
2022-11-19T04:26:46.709Z,91.40
2022-11-19T04:29:13.489Z,91.40
2022-11-19T04:31:40.439Z,91.50
2022-11-19T04:34:07.201Z,91.50
2022-11-19T04:36:33.976Z,91.60
2022-11-19T04:39:01.111Z,91.50
2022-11-19T04:41:27.806Z,91.40
2022-11-19T04:43:54.644Z,91.40
2022-11-19T04:46:21.359Z,91.40
2022-11-19T04:48:48.183Z,91.40
2022-11-19T04:51:14.778Z,91.40
2022-11-19T04:53:41.558Z,91.40
2022-11-19T04:56:08.200Z,91.40
2022-11-19T04:58:34.948Z,91.50
2022-11-19T05:01:01.739Z,91.50
2022-11-19T05:03:28.469Z,91.60
2022-11-19T05:05:55.209Z,91.30
2022-11-19T05:08:22.074Z,91.30
2022-11-19T05:10:48.724Z,91.30
2022-11-19T05:13:15.460Z,91.30
2022-11-19T05:15:42.108Z,91.30
2022-11-19T05:18:08.811Z,91.30
2022-11-19T05:20:35.444Z,91.40
2022-11-19T05:23:02.130Z,91.30
2022-11-19T05:25:28.939Z,91.30
2022-11-19T05:27:55.574Z,91.30
2022-11-19T05:30:22.212Z,91.20
2022-11-19T05:32:49.005Z,91.30
2022-11-19T05:35:15.656Z,91.30
2022-11-19T05:37:42.304Z,91.20
2022-11-19T05:40:09.293Z,91.30
2022-11-19T05:42:36.011Z,91.20
2022-11-19T05:45:02.893Z,91.20
2022-11-19T05:47:29.544Z,91.10
2022-11-19T05:49:56.278Z,91.00
2022-11-19T05:52:23.001Z,91.40
2022-11-19T05:54:49.765Z,91.00
2022-11-19T05:57:16.484Z,91.00
2022-11-19T05:59:44.148Z,91.00
2022-11-19T06:02:11.272Z,90.80
2022-11-19T06:04:38.039Z,90.70
2022-11-19T06:07:04.890Z,90.80
2022-11-19T06:09:32.480Z,90.80
2022-11-19T06:11:59.300Z,90.80
2022-11-19T06:14:26.977Z,90.80
2022-11-19T06:16:54.855Z,90.70
2022-11-19T06:19:21.877Z,90.70
2022-11-19T06:21:49.405Z,90.70
2022-11-19T06:24:16.084Z,90.70
2022-11-19T06:26:43.028Z,90.70
2022-11-19T06:29:12.669Z,90.60
2022-11-19T06:31:39.318Z,90.60
2022-11-19T06:34:06.054Z,90.60
2022-11-19T06:36:38.880Z,90.50
2022-11-19T06:39:08.192Z,90.50
2022-11-19T06:41:35.119Z,90.40
2022-11-19T06:44:01.894Z,90.40
2022-11-19T06:46:28.498Z,90.50
2022-11-19T06:48:55.364Z,90.50
2022-11-19T06:51:21.988Z,90.40
2022-11-19T06:53:48.681Z,90.30
2022-11-19T06:56:15.396Z,90.30
2022-11-19T06:58:42.045Z,90.30
2022-11-19T07:01:08.775Z,90.20
2022-11-19T07:03:35.721Z,90.20
2022-11-19T07:06:03.300Z,90.20
2022-11-19T07:08:33.514Z,90.20
2022-11-19T07:11:00.790Z,90.20
2022-11-19T07:13:50.268Z,90.20
2022-11-19T07:16:16.967Z,90.20
2022-11-19T07:18:43.639Z,90.20
2022-11-19T07:21:10.388Z,90.30
2022-11-19T07:23:36.970Z,90.30
2022-11-19T07:26:03.601Z,90.20
2022-11-19T07:28:30.178Z,90.10
2022-11-19T07:30:56.966Z,90.10
2022-11-19T07:33:23.627Z,90.10
2022-11-19T07:35:50.431Z,90.10
2022-11-19T07:38:17.215Z,90.10
2022-11-19T07:40:51.846Z,90.10
2022-11-19T07:43:18.563Z,90.10
2022-11-19T07:45:45.278Z,90.00
2022-11-19T07:48:12.067Z,90.10
2022-11-19T07:50:40.501Z,90.10
2022-11-19T07:53:07.587Z,90.20
2022-11-19T07:55:34.344Z,90.20
2022-11-19T07:58:01.608Z,90.30
2022-11-19T08:00:28.257Z,90.20
2022-11-19T08:02:54.913Z,90.20
2022-11-19T08:05:21.575Z,90.20
2022-11-19T08:07:48.254Z,90.50
2022-11-19T08:10:15.072Z,90.20
2022-11-19T08:12:41.769Z,90.10
2022-11-19T08:15:08.628Z,90.00
2022-11-19T08:17:54.057Z,90.00
2022-11-19T08:20:20.821Z,90.00
2022-11-19T08:22:47.528Z,90.10
2022-11-19T08:25:14.317Z,90.10
2022-11-19T08:27:41.346Z,90.10
2022-11-19T08:30:08.514Z,90.20
2022-11-19T08:32:35.973Z,90.20
2022-11-19T08:35:02.610Z,90.20
2022-11-19T08:37:29.333Z,90.20
2022-11-19T08:39:55.993Z,90.20
2022-11-19T08:42:41.453Z,90.10
2022-11-19T08:45:08.320Z,90.00
2022-11-19T08:47:34.957Z,90.00
2022-11-19T08:50:01.831Z,90.10
2022-11-19T08:52:28.514Z,90.20
2022-11-19T08:54:55.097Z,90.50
2022-11-19T08:57:21.688Z,90.10
2022-11-19T08:59:48.383Z,90.10
2022-11-19T09:02:14.959Z,90.10
2022-11-19T09:04:41.732Z,90.10
2022-11-19T09:07:08.756Z,90.30
2022-11-19T09:09:35.444Z,90.40
2022-11-19T09:12:02.039Z,90.30
2022-11-19T09:14:28.832Z,90.20
2022-11-19T09:16:55.518Z,90.20
2022-11-19T09:19:22.202Z,90.40
2022-11-19T09:21:49.326Z,90.40
2022-11-19T09:24:16.029Z,90.50
2022-11-19T09:26:42.604Z,90.50
2022-11-19T09:29:09.381Z,90.40
2022-11-19T09:31:36.150Z,90.40
2022-11-19T09:34:03.839Z,90.50
2022-11-19T09:36:31.709Z,90.60
2022-11-19T09:38:58.760Z,90.10
2022-11-19T09:41:28.320Z,90.00
2022-11-19T09:43:54.974Z,90.00
2022-11-19T09:46:42.198Z,90.10
2022-11-19T09:49:11.054Z,90.10
2022-11-19T09:51:40.076Z,90.10
2022-11-19T09:54:08.172Z,90.10
2022-11-19T09:56:37.008Z,90.00
2022-11-19T09:59:21.972Z,90.00
2022-11-19T10:01:48.600Z,90.00
2022-11-19T10:04:19.990Z,90.00
2022-11-19T10:06:59.529Z,89.90
2022-11-19T10:09:37.732Z,89.00
2022-11-19T10:12:14.244Z,89.20
2022-11-19T10:14:47.761Z,89.70
2022-11-19T10:17:33.403Z,89.70
2022-11-19T10:20:18.714Z,89.90
2022-11-19T10:22:45.455Z,89.90
2022-11-19T10:25:21.555Z,90.00
2022-11-19T10:27:55.016Z,90.00
2022-11-19T10:30:25.508Z,90.00
2022-11-19T10:33:00.905Z,89.70
2022-11-19T10:35:30.248Z,89.30
2022-11-19T10:38:01.999Z,89.30
2022-11-19T10:40:32.881Z,89.80
2022-11-19T10:43:08.103Z,89.50
2022-11-19T10:45:34.763Z,89.50
2022-11-19T10:48:09.550Z,89.50
2022-11-19T10:50:36.489Z,89.60
2022-11-19T10:53:21.003Z,89.60
2022-11-19T10:55:54.409Z,89.40
2022-11-19T10:58:24.571Z,88.70
2022-11-19T11:00:55.783Z,88.80
2022-11-19T11:03:26.867Z,88.70
2022-11-19T11:05:55.583Z,88.40
2022-11-19T11:08:22.507Z,88.30
2022-11-19T11:10:50.662Z,88.20
2022-11-19T11:13:45.754Z,87.70
2022-11-19T11:16:15.621Z,87.60
2022-11-19T11:18:42.437Z,87.50
2022-11-19T11:21:13.479Z,87.50
2022-11-19T11:23:48.390Z,87.40
2022-11-19T11:26:18.656Z,87.40
2022-11-19T11:29:05.347Z,87.00
2022-11-19T11:31:42.331Z,87.00
2022-11-19T11:34:27.322Z,86.90
2022-11-19T11:36:55.018Z,86.90
2022-11-19T11:39:27.711Z,86.60
2022-11-19T11:42:14.465Z,86.60
2022-11-19T11:44:49.090Z,86.60
2022-11-19T11:47:17.452Z,86.50
2022-11-19T11:49:45.837Z,86.20
2022-11-19T11:52:12.950Z,85.90
2022-11-19T11:54:59.337Z,85.90
2022-11-19T11:57:30.328Z,86.10
2022-11-19T11:59:57.471Z,86.00
2022-11-19T12:02:30.714Z,85.60
2022-11-19T12:05:10.957Z,85.60
2022-11-19T12:08:13.162Z,85.60
2022-11-19T12:10:58.572Z,86.00
2022-11-19T12:13:28.304Z,85.80
2022-11-19T12:16:17.197Z,84.80
2022-11-19T12:18:54.302Z,84.90
2022-11-19T12:21:39.863Z,84.50
2022-11-19T12:24:14.069Z,84.60
2022-11-19T12:27:07.343Z,84.80
2022-11-19T12:29:42.980Z,85.00
2022-11-19T12:32:18.646Z,85.10
2022-11-19T12:35:00.790Z,85.30
2022-11-19T12:37:41.094Z,85.40
2022-11-19T12:40:10.931Z,85.40
2022-11-19T12:42:44.584Z,85.20
2022-11-19T12:45:18.012Z,85.00
2022-11-19T12:48:07.316Z,84.90
2022-11-19T12:50:33.984Z,84.80
2022-11-19T12:53:23.363Z,84.80
2022-11-19T12:55:50.028Z,85.00
2022-11-19T12:58:16.681Z,85.00
2022-11-19T13:00:50.564Z,84.70
2022-11-19T13:03:26.368Z,84.30
2022-11-19T13:06:08.736Z,82.60
2022-11-19T13:08:39.276Z,82.80
2022-11-19T13:11:12.129Z,83.10
2022-11-19T13:13:40.716Z,83.10
2022-11-19T13:16:09.871Z,83.40
2022-11-19T13:18:39.002Z,83.30
2022-11-19T13:21:28.502Z,83.20
2022-11-19T13:23:55.838Z,83.30
2022-11-19T13:26:29.177Z,83.20
2022-11-19T13:29:03.686Z,83.20
2022-11-19T13:31:46.718Z,83.30
2022-11-19T13:34:18.658Z,83.20
2022-11-19T13:36:49.085Z,83.10
2022-11-19T13:39:26.123Z,82.90
2022-11-19T13:42:13.380Z,82.80
2022-11-19T13:44:43.324Z,82.50
2022-11-19T13:47:13.190Z,82.40
2022-11-19T13:49:42.847Z,82.60
2022-11-19T13:52:14.887Z,82.40
2022-11-19T13:54:43.146Z,82.30
2022-11-19T13:57:22.249Z,82.30
2022-11-19T13:59:49.647Z,82.80
2022-11-19T14:02:35.331Z,81.90
2022-11-19T14:05:21.112Z,81.70
2022-11-19T14:07:47.907Z,81.80
2022-11-19T14:10:20.709Z,81.80
2022-11-19T14:12:55.529Z,81.80
2022-11-19T14:15:58.656Z,82.60
2022-11-19T14:18:53.060Z,81.80
2022-11-19T14:21:43.173Z,81.80
2022-11-19T14:25:00.561Z,82.00
2022-11-19T14:27:34.311Z,82.00
2022-11-19T14:30:02.557Z,81.90
2022-11-19T14:32:29.738Z,81.70
2022-11-19T14:35:02.810Z,81.80
2022-11-19T14:37:32.508Z,81.70
2022-11-19T14:40:21.033Z,81.70
2022-11-19T14:43:18.918Z,81.70
2022-11-19T14:46:08.671Z,81.70
2022-11-19T14:48:47.175Z,81.70
2022-11-19T14:51:15.715Z,81.60
2022-11-19T14:53:50.683Z,81.60
2022-11-19T14:56:19.693Z,81.60
2022-11-19T14:58:55.230Z,81.60
2022-11-19T15:01:22.561Z,81.60
2022-11-19T15:03:53.064Z,81.70
2022-11-19T15:06:20.036Z,81.70
2022-11-19T15:08:48.194Z,81.70
2022-11-19T15:11:15.476Z,81.70
2022-11-19T15:13:49.496Z,81.70
2022-11-19T15:16:20.913Z,81.60
2022-11-19T15:18:55.017Z,81.60
2022-11-19T15:21:24.825Z,81.60
2022-11-19T15:24:06.786Z,81.70
2022-11-19T15:26:45.273Z,81.70
2022-11-19T15:29:15.242Z,81.60
2022-11-19T15:32:00.685Z,81.60
2022-11-19T15:35:10.201Z,81.70
2022-11-19T15:37:42.620Z,81.60
2022-11-19T15:40:12.250Z,81.70
2022-11-19T15:42:45.947Z,81.80
2022-11-19T15:45:16.416Z,81.90
2022-11-19T15:47:54.750Z,81.90
2022-11-19T15:50:23.030Z,81.90
2022-11-19T15:53:03.459Z,81.80
2022-11-19T15:55:31.058Z,81.80
2022-11-19T15:58:02.877Z,81.80
2022-11-19T16:00:29.543Z,81.80
2022-11-19T16:02:56.288Z,81.90
2022-11-19T16:05:30.448Z,82.00
2022-11-19T16:07:59.932Z,82.00
2022-11-19T16:10:28.866Z,82.00
2022-11-19T16:13:15.406Z,82.00
2022-11-19T16:16:10.785Z,82.10
2022-11-19T16:18:47.603Z,82.10
2022-11-19T16:21:18.092Z,82.10
2022-11-19T16:24:04.800Z,82.00
2022-11-19T16:26:35.740Z,82.10
2022-11-19T16:29:02.437Z,82.10
2022-11-19T16:31:29.604Z,82.20
2022-11-19T16:33:57.169Z,82.20
2022-11-19T16:36:24.507Z,82.30
2022-11-19T16:38:52.149Z,82.40
2022-11-19T16:41:38.438Z,82.30
2022-11-19T16:44:07.760Z,82.40
2022-11-19T16:46:35.183Z,82.40
2022-11-19T16:49:10.810Z,82.50
2022-11-19T16:51:50.351Z,82.60
2022-11-19T16:54:37.021Z,82.60
2022-11-19T16:57:05.138Z,82.60
2022-11-19T16:59:33.089Z,82.70
2022-11-19T17:02:00.127Z,82.70
2022-11-19T17:04:31.313Z,82.70
2022-11-19T17:06:58.714Z,82.90
2022-11-19T17:09:41.513Z,82.90
2022-11-19T17:12:28.534Z,83.00
2022-11-19T17:14:55.680Z,82.90
2022-11-19T17:17:25.270Z,82.90
2022-11-19T17:19:52.297Z,82.90
2022-11-19T17:22:21.458Z,82.90
2022-11-19T17:24:48.053Z,82.90
2022-11-19T17:27:25.379Z,82.90
2022-11-19T17:29:58.072Z,82.90
2022-11-19T17:32:24.880Z,82.90
2022-11-19T17:34:55.127Z,82.80
2022-11-19T17:37:21.882Z,82.80
2022-11-19T17:39:48.502Z,82.90
2022-11-19T17:42:33.940Z,83.00
2022-11-19T17:45:02.718Z,82.90
2022-11-19T17:47:31.467Z,82.80
2022-11-19T17:49:58.110Z,82.80
2022-11-19T17:52:28.917Z,82.80
2022-11-19T17:54:57.542Z,82.80
2022-11-19T17:57:24.381Z,82.80
2022-11-19T17:59:51.102Z,82.90
2022-11-19T18:02:18.953Z,83.00
2022-11-19T18:04:46.398Z,83.00
2022-11-19T18:07:13.468Z,83.00
2022-11-19T18:09:40.967Z,83.00
2022-11-19T18:12:12.509Z,83.00
2022-11-19T18:14:39.164Z,83.00
2022-11-19T18:17:05.930Z,83.00
2022-11-19T18:19:33.668Z,83.00
2022-11-19T18:22:00.302Z,83.00
2022-11-19T18:24:26.942Z,82.90
2022-11-19T18:26:53.685Z,82.90
2022-11-19T18:29:20.773Z,83.00
2022-11-19T18:31:49.360Z,83.80
2022-11-19T18:34:17.964Z,82.90
2022-11-19T18:36:44.534Z,83.00
2022-11-19T18:39:11.164Z,83.00
2022-11-19T18:41:38.275Z,83.10
2022-11-19T18:44:24.164Z,83.00
2022-11-19T18:46:50.809Z,83.00
2022-11-19T18:49:17.408Z,83.00
2022-11-19T18:51:44.330Z,82.90
2022-11-19T18:54:12.041Z,83.00
2022-11-19T18:56:38.703Z,83.00
2022-11-19T18:59:05.395Z,83.00
2022-11-19T19:01:32.239Z,82.90
2022-11-19T19:03:58.898Z,82.90
2022-11-19T19:06:25.634Z,82.90
2022-11-19T19:08:52.294Z,83.00
2022-11-19T19:11:37.622Z,82.90
2022-11-19T19:14:04.456Z,83.10
2022-11-19T19:16:31.986Z,83.10
2022-11-19T19:18:58.615Z,83.10
2022-11-19T19:21:25.304Z,83.10
2022-11-19T19:23:51.978Z,83.20
2022-11-19T19:26:18.918Z,83.30
2022-11-19T19:28:50.044Z,83.30
2022-11-19T19:31:18.096Z,83.20
2022-11-19T19:33:48.079Z,83.40
2022-11-19T19:36:15.274Z,83.40
2022-11-19T19:38:42.042Z,83.50
2022-11-19T19:41:16.175Z,83.40
2022-11-19T19:43:42.850Z,83.40
2022-11-19T19:46:16.139Z,83.40
2022-11-19T19:48:49.951Z,83.40
2022-11-19T19:51:17.235Z,83.30
2022-11-19T19:53:44.134Z,83.30
2022-11-19T19:56:16.240Z,83.20
2022-11-19T19:58:46.540Z,83.30
2022-11-19T20:01:15.078Z,83.30
2022-11-19T20:03:44.502Z,83.40
2022-11-19T20:06:12.180Z,83.50
2022-11-19T20:08:39.419Z,83.60
2022-11-19T20:11:07.110Z,83.40
2022-11-19T20:13:33.961Z,83.50
2022-11-19T20:16:18.305Z,83.40
2022-11-19T20:18:46.546Z,83.30
2022-11-19T20:21:14.842Z,83.30
2022-11-19T20:23:42.247Z,83.30
2022-11-19T20:26:12.166Z,83.30
2022-11-19T20:28:38.949Z,83.30
2022-11-19T20:31:10.845Z,83.40
2022-11-19T20:33:38.190Z,83.60
2022-11-19T20:36:05.772Z,83.60
2022-11-19T20:38:34.298Z,83.50
2022-11-19T20:41:02.891Z,83.40
2022-11-19T20:43:52.637Z,83.40
2022-11-19T20:46:20.812Z,83.30
2022-11-19T20:48:47.903Z,83.30
2022-11-19T20:51:16.455Z,83.40
2022-11-19T20:53:43.516Z,83.40
2022-11-19T20:56:10.836Z,83.40
2022-11-19T20:58:37.770Z,84.30
2022-11-19T21:01:10.253Z,83.30
2022-11-19T21:03:37.502Z,83.50
2022-11-19T21:06:05.008Z,83.50
2022-11-19T21:08:32.396Z,83.60
2022-11-19T21:11:09.371Z,83.60
2022-11-19T21:13:36.920Z,83.70
2022-11-19T21:16:08.202Z,83.80
2022-11-19T21:18:37.094Z,83.70
2022-11-19T21:21:06.742Z,83.70
2022-11-19T21:23:34.102Z,83.80
2022-11-19T21:26:17.006Z,83.90
2022-11-19T21:28:47.359Z,83.90
2022-11-19T21:31:15.102Z,83.90
2022-11-19T21:33:41.816Z,83.90
2022-11-19T21:36:09.218Z,83.80
2022-11-19T21:38:36.326Z,83.80
2022-11-19T21:41:03.384Z,83.70
2022-11-19T21:43:30.056Z,83.80
2022-11-19T21:45:57.334Z,83.90
2022-11-19T21:48:24.552Z,84.00
2022-11-19T21:50:52.077Z,84.10
2022-11-19T21:53:18.857Z,84.20
2022-11-19T21:55:46.010Z,84.20
2022-11-19T21:58:13.881Z,84.20
2022-11-19T22:00:41.269Z,84.00
2022-11-19T22:03:08.128Z,84.00
2022-11-19T22:05:35.015Z,83.90
2022-11-19T22:08:02.252Z,83.90
2022-11-19T22:10:29.599Z,83.90
2022-11-19T22:12:57.324Z,83.80
2022-11-19T22:15:25.501Z,83.80
2022-11-19T22:17:52.378Z,83.80
2022-11-19T22:20:19.176Z,83.80
2022-11-19T22:22:46.497Z,83.90
2022-11-19T22:25:13.532Z,84.00
2022-11-19T22:27:41.525Z,84.00
2022-11-19T22:30:08.945Z,84.00
2022-11-19T22:32:35.996Z,84.00
2022-11-19T22:35:02.921Z,84.10
2022-11-19T22:37:29.567Z,84.20
2022-11-19T22:39:56.273Z,84.30
2022-11-19T22:42:22.983Z,84.30
2022-11-19T22:44:49.571Z,84.30
2022-11-19T22:47:16.291Z,84.30
2022-11-19T22:49:44.082Z,84.50
2022-11-19T22:52:15.580Z,84.50
2022-11-19T22:54:42.334Z,84.60
2022-11-19T22:57:09.413Z,84.60
2022-11-19T22:59:38.310Z,84.50
2022-11-19T23:02:05.258Z,84.40
2022-11-19T23:04:31.898Z,84.30
2022-11-19T23:06:58.783Z,84.30
2022-11-19T23:09:25.604Z,84.30
2022-11-19T23:12:11.153Z,84.10
2022-11-19T23:14:37.813Z,84.10
2022-11-19T23:17:04.412Z,84.00
2022-11-19T23:19:31.038Z,84.10
2022-11-19T23:21:57.920Z,84.30
2022-11-19T23:24:24.780Z,84.40
2022-11-19T23:26:53.087Z,84.50
2022-11-19T23:29:20.363Z,84.50
2022-11-19T23:31:47.272Z,84.60
2022-11-19T23:34:14.993Z,84.60
2022-11-19T23:36:42.057Z,84.60
2022-11-19T23:39:13.324Z,84.60
2022-11-19T23:41:40.256Z,84.60
2022-11-19T23:44:06.863Z,84.60
2022-11-19T23:46:34.523Z,84.50
2022-11-19T23:49:01.449Z,84.50
2022-11-19T23:51:32.475Z,84.40
2022-11-19T23:53:59.280Z,84.30
2022-11-19T23:56:26.562Z,84.30
2022-11-19T23:58:54.749Z,84.40
